Terminal Aerodrome Forecast
Issued by NWS

Home | Current Version | Previous Version | Text Only | Print | Product List | Glossary On
Versions: 1 2 3 4 5 6 7 8 9 10 11 12 13 14 15 16 17 18 19 20 21
000
FTUS43 KGLD 232014 AAA
TAFMCK
TAF AMD
KMCK 232014Z 2320/2418 04015G25KT 1SM -FZRA BR OVC005
     FM240000 03015G25KT 2SM -FZRASN OVC005
     FM240300 35015G25KT 3SM -SN BKN005=

USA.gov is the U.S. government's official web portal to all federal, state and local government web resources and services.